Merrifield, Virginia
Current Conditions -  °F | °C
As of 2:52 AM on Tuesday 21 Oct 2014 (Local Time) from KDCA Reporting Station
Broken Clouds Broken Clouds  
Wind Chill: 57°   Ceiling: 11000
Heat Index: 57°   Visibility: 10mi
Dew Point: 49°   Wind: 5mph
Humidity: 74%   Direction: 210°SSW
Pressure: 29.89"   Gusts: NA
Location:  38.87°N, 77.23°W
Report Text: KDCA 210652Z 21004KT 10SM FEW080 BKN110 14/09 A2989 RMK AO2 SLP122 T01390094
Loading
Personal Weather Stations






























Interactive Weather Map
Tropical Storm Tracking
New forecast layout! Learn more

10-Day Weather Forecast

Advertisements
Track Severe Weather on mobile